sensor_id;sensor_type;location;lat;lon;timestamp;P1;P2;P0
32066;PMS7003;18573;47.890;35.066;2022-12-20T00:01:36;37.75;34.25;21.25
32066;PMS7003;18573;47.890;35.066;2022-12-20T00:04:05;39.50;38.50;22.25
32066;PMS7003;18573;47.890;35.066;2022-12-20T00:06:34;43.75;38.75;24.00
32066;PMS7003;18573;47.890;35.066;2022-12-20T00:09:05;43.75;38.25;23.50
32066;PMS7003;18573;47.890;35.066;2022-12-20T00:11:37;42.50;38.50;25.25
32066;PMS7003;18573;47.890;35.066;2022-12-20T00:14:07;37.25;32.25;18.50
32066;PMS7003;18573;47.890;35.066;2022-12-20T00:16:37;39.25;37.75;23.00
32066;PMS7003;18573;47.890;35.066;2022-12-20T00:19:06;44.00;37.75;21.75
32066;PMS7003;18573;47.890;35.066;2022-12-20T00:21:36;34.00;33.25;20.50
32066;PMS7003;18573;47.890;35.066;2022-12-20T00:24:06;47.00;41.25;21.50
32066;PMS7003;18573;47.890;35.066;2022-12-20T00:26:35;37.75;35.75;21.50
32066;PMS7003;18573;47.890;35.066;2022-12-20T00:29:05;34.50;32.75;22.25
32066;PMS7003;18573;47.890;35.066;2022-12-20T00:31:35;40.00;34.00;24.00
32066;PMS7003;18573;47.890;35.066;2022-12-20T00:34:04;37.25;31.25;21.50
32066;PMS7003;18573;47.890;35.066;2022-12-20T00:36:33;39.25;36.25;21.25
32066;PMS7003;18573;47.890;35.066;2022-12-20T00:39:02;44.50;40.75;25.25
32066;PMS7003;18573;47.890;35.066;2022-12-20T00:41:32;36.00;33.50;22.25
32066;PMS7003;18573;47.890;35.066;2022-12-20T00:44:02;40.50;37.75;24.25
32066;PMS7003;18573;47.890;35.066;2022-12-20T00:46:32;39.00;38.00;22.25
32066;PMS7003;18573;47.890;35.066;2022-12-20T00:49:01;45.75;36.75;23.50
32066;PMS7003;18573;47.890;35.066;2022-12-20T00:51:31;34.50;32.25;19.75
32066;PMS7003;18573;47.890;35.066;2022-12-20T00:54:00;33.25;32.50;20.75
32066;PMS7003;18573;47.890;35.066;2022-12-20T00:56:29;43.75;36.25;21.75
32066;PMS7003;18573;47.890;35.066;2022-12-20T00:58:59;38.25;35.50;23.00
32066;PMS7003;18573;47.890;35.066;2022-12-20T01:01:29;38.25;35.00;23.25
32066;PMS7003;18573;47.890;35.066;2022-12-20T01:04:02;36.25;33.00;24.00
32066;PMS7003;18573;47.890;35.066;2022-12-20T01:06:31;36.00;34.25;18.75
32066;PMS7003;18573;47.890;35.066;2022-12-20T01:09:00;36.50;35.75;26.50
32066;PMS7003;18573;47.890;35.066;2022-12-20T01:11:31;41.75;37.75;22.25
32066;PMS7003;18573;47.890;35.066;2022-12-20T01:14:06;43.00;39.00;24.75
32066;PMS7003;18573;47.890;35.066;2022-12-20T01:16:37;36.00;32.50;18.00
32066;PMS7003;18573;47.890;35.066;2022-12-20T01:19:09;43.25;39.75;25.50
32066;PMS7003;18573;47.890;35.066;2022-12-20T01:21:43;42.25;35.25;21.25
32066;PMS7003;18573;47.890;35.066;2022-12-20T01:24:12;44.50;40.00;24.75
32066;PMS7003;18573;47.890;35.066;2022-12-20T01:26:43;41.00;39.75;25.25
32066;PMS7003;18573;47.890;35.066;2022-12-20T01:29:12;49.25;42.50;24.25
32066;PMS7003;18573;47.890;35.066;2022-12-20T01:31:42;43.25;38.25;22.75
32066;PMS7003;18573;47.890;35.066;2022-12-20T01:34:11;42.00;40.50;24.50
32066;PMS7003;18573;47.890;35.066;2022-12-20T01:36:41;36.50;31.50;16.25
32066;PMS7003;18573;47.890;35.066;2022-12-20T01:39:11;45.25;42.00;25.75
32066;PMS7003;18573;47.890;35.066;2022-12-20T01:41:42;46.00;42.75;26.00
32066;PMS7003;18573;47.890;35.066;2022-12-20T01:46:49;48.50;42.50;28.75
32066;PMS7003;18573;47.890;35.066;2022-12-20T01:49:20;44.00;38.25;26.00
32066;PMS7003;18573;47.890;35.066;2022-12-20T01:51:53;42.25;39.25;24.75
32066;PMS7003;18573;47.890;35.066;2022-12-20T01:54:36;48.00;41.00;25.50
32066;PMS7003;18573;47.890;35.066;2022-12-20T01:57:21;45.25;39.25;25.00
32066;PMS7003;18573;47.890;35.066;2022-12-20T01:59:47;48.75;40.75;23.50
32066;PMS7003;18573;47.890;35.066;2022-12-20T02:02:19;47.75;42.75;26.75
32066;PMS7003;18573;47.890;35.066;2022-12-20T02:04:49;46.50;42.25;26.00
32066;PMS7003;18573;47.890;35.066;2022-12-20T02:07:19;48.50;44.25;28.00
32066;PMS7003;18573;47.890;35.066;2022-12-20T02:09:49;49.00;39.50;24.25
32066;PMS7003;18573;47.890;35.066;2022-12-20T02:12:22;46.50;41.50;25.50
32066;PMS7003;18573;47.890;35.066;2022-12-20T02:15:02;47.75;43.50;26.75
32066;PMS7003;18573;47.890;35.066;2022-12-20T02:20:45;55.25;46.75;26.75
32066;PMS7003;18573;47.890;35.066;2022-12-20T02:26:22;51.25;45.00;26.75
32066;PMS7003;18573;47.890;35.066;2022-12-20T02:31:37;57.00;46.50;26.00
32066;PMS7003;18573;47.890;35.066;2022-12-20T02:34:11;61.25;50.75;32.25
32066;PMS7003;18573;47.890;35.066;2022-12-20T02:36:42;56.75;47.50;26.25
32066;PMS7003;18573;47.890;35.066;2022-12-20T02:39:12;58.75;48.50;32.25
32066;PMS7003;18573;47.890;35.066;2022-12-20T02:41:46;56.00;49.00;29.75
32066;PMS7003;18573;47.890;35.066;2022-12-20T02:44:22;64.00;52.00;28.75
32066;PMS7003;18573;47.890;35.066;2022-12-20T02:47:16;60.75;49.75;30.00
32066;PMS7003;18573;47.890;35.066;2022-12-20T02:49:46;62.00;52.75;31.25
32066;PMS7003;18573;47.890;35.066;2022-12-20T02:52:18;68.25;50.75;11.50
32066;PMS7003;18573;47.890;35.066;2022-12-20T02:54:52;158.25;134.50;58.75
32066;PMS7003;18573;47.890;35.066;2022-12-20T03:00:16;175.25;148.00;57.00
32066;PMS7003;18573;47.890;35.066;2022-12-20T03:02:32;151.25;128.75;65.50
32066;PMS7003;18573;47.890;35.066;2022-12-20T03:05:21;136.00;114.00;58.50
32066;PMS7003;18573;47.890;35.066;2022-12-20T03:07:52;83.00;67.00;36.75
32066;PMS7003;18573;47.890;35.066;2022-12-20T03:10:22;83.00;66.50;39.00
32066;PMS7003;18573;47.890;35.066;2022-12-20T03:12:51;79.25;66.25;36.50
32066;PMS7003;18573;47.890;35.066;2022-12-20T03:15:20;69.50;58.50;34.25
32066;PMS7003;18573;47.890;35.066;2022-12-20T03:17:49;76.00;59.75;34.00
32066;PMS7003;18573;47.890;35.066;2022-12-20T03:20:18;71.50;59.50;34.00
32066;PMS7003;18573;47.890;35.066;2022-12-20T03:22:47;65.00;52.25;29.25
32066;PMS7003;18573;47.890;35.066;2022-12-20T03:25:17;92.50;73.00;41.25
32066;PMS7003;18573;47.890;35.066;2022-12-20T03:27:46;80.00;64.75;34.00
32066;PMS7003;18573;47.890;35.066;2022-12-20T03:30:15;80.25;64.50;38.00
32066;PMS7003;18573;47.890;35.066;2022-12-20T03:32:44;79.25;65.00;37.00
32066;PMS7003;18573;47.890;35.066;2022-12-20T03:35:13;61.25;49.25;25.75
32066;PMS7003;18573;47.890;35.066;2022-12-20T03:37:43;76.50;62.75;36.25
32066;PMS7003;18573;47.890;35.066;2022-12-20T03:40:12;79.25;57.75;32.75
32066;PMS7003;18573;47.890;35.066;2022-12-20T03:42:42;77.75;63.50;36.75
32066;PMS7003;18573;47.890;35.066;2022-12-20T03:45:11;64.00;52.75;31.25
32066;PMS7003;18573;47.890;35.066;2022-12-20T03:47:40;80.00;61.00;34.50
32066;PMS7003;18573;47.890;35.066;2022-12-20T03:50:09;81.50;62.25;35.25
32066;PMS7003;18573;47.890;35.066;2022-12-20T03:52:39;77.25;63.00;37.25
32066;PMS7003;18573;47.890;35.066;2022-12-20T03:55:08;77.75;62.00;35.75
32066;PMS7003;18573;47.890;35.066;2022-12-20T03:57:38;80.75;64.50;36.25
32066;PMS7003;18573;47.890;35.066;2022-12-20T04:00:08;83.75;66.25;37.00
32066;PMS7003;18573;47.890;35.066;2022-12-20T04:02:38;80.25;66.00;36.75
32066;PMS7003;18573;47.890;35.066;2022-12-20T04:05:08;67.50;53.50;30.50
32066;PMS7003;18573;47.890;35.066;2022-12-20T04:07:37;44.75;39.25;22.75
32066;PMS7003;18573;47.890;35.066;2022-12-20T04:10:06;60.50;49.50;32.00
32066;PMS7003;18573;47.890;35.066;2022-12-20T04:12:36;54.00;44.75;24.25
32066;PMS7003;18573;47.890;35.066;2022-12-20T04:15:05;59.00;49.50;28.00
32066;PMS7003;18573;47.890;35.066;2022-12-20T04:17:35;58.50;44.50;24.50
32066;PMS7003;18573;47.890;35.066;2022-12-20T04:20:04;47.50;41.75;22.50
32066;PMS7003;18573;47.890;35.066;2022-12-20T04:22:50;37.75;32.25;23.00
32066;PMS7003;18573;47.890;35.066;2022-12-20T04:25:19;49.50;42.00;18.75
32066;PMS7003;18573;47.890;35.066;2022-12-20T04:27:49;60.50;49.50;26.75
32066;PMS7003;18573;47.890;35.066;2022-12-20T04:30:18;62.25;50.00;29.50
32066;PMS7003;18573;47.890;35.066;2022-12-20T04:32:47;58.50;48.75;27.25
32066;PMS7003;18573;47.890;35.066;2022-12-20T04:35:17;62.25;49.00;26.50
32066;PMS7003;18573;47.890;35.066;2022-12-20T04:37:46;57.50;47.25;28.75
32066;PMS7003;18573;47.890;35.066;2022-12-20T04:40:16;57.25;49.50;29.75
32066;PMS7003;18573;47.890;35.066;2022-12-20T04:42:45;74.25;57.00;32.25
32066;PMS7003;18573;47.890;35.066;2022-12-20T04:45:14;80.50;61.50;32.50
32066;PMS7003;18573;47.890;35.066;2022-12-20T04:47:43;81.00;60.25;31.75
32066;PMS7003;18573;47.890;35.066;2022-12-20T04:50:12;89.25;69.50;36.50
32066;PMS7003;18573;47.890;35.066;2022-12-20T04:52:41;76.25;60.50;34.50
32066;PMS7003;18573;47.890;35.066;2022-12-20T04:55:28;68.25;55.25;29.00
32066;PMS7003;18573;47.890;35.066;2022-12-20T04:57:57;59.00;46.75;27.00
32066;PMS7003;18573;47.890;35.066;2022-12-20T05:00:28;63.25;46.25;25.50
32066;PMS7003;18573;47.890;35.066;2022-12-20T05:02:57;55.25;45.25;26.75
32066;PMS7003;18573;47.890;35.066;2022-12-20T05:05:27;52.75;43.25;22.25
32066;PMS7003;18573;47.890;35.066;2022-12-20T05:07:56;49.75;43.50;25.25
32066;PMS7003;18573;47.890;35.066;2022-12-20T05:10:25;44.50;35.75;19.00
32066;PMS7003;18573;47.890;35.066;2022-12-20T05:12:55;50.25;43.75;23.00
32066;PMS7003;18573;47.890;35.066;2022-12-20T05:15:25;48.50;38.75;18.50
32066;PMS7003;18573;47.890;35.066;2022-12-20T05:17:54;46.75;39.25;23.50
32066;PMS7003;18573;47.890;35.066;2022-12-20T05:20:27;49.25;43.00;25.50
32066;PMS7003;18573;47.890;35.066;2022-12-20T05:22:58;37.75;34.00;20.75
32066;PMS7003;18573;47.890;35.066;2022-12-20T05:25:45;59.25;49.25;27.50
32066;PMS7003;18573;47.890;35.066;2022-12-20T05:28:34;52.50;44.00;25.50
32066;PMS7003;18573;47.890;35.066;2022-12-20T05:31:04;57.25;45.25;25.50
32066;PMS7003;18573;47.890;35.066;2022-12-20T05:33:33;49.25;43.25;25.25
32066;PMS7003;18573;47.890;35.066;2022-12-20T05:36:02;57.50;44.75;24.50
32066;PMS7003;18573;47.890;35.066;2022-12-20T05:38:31;57.00;47.00;24.25
32066;PMS7003;18573;47.890;35.066;2022-12-20T05:41:00;51.75;41.75;24.50
32066;PMS7003;18573;47.890;35.066;2022-12-20T05:43:31;58.75;48.00;28.25
32066;PMS7003;18573;47.890;35.066;2022-12-20T05:46:01;54.25;43.00;23.25
32066;PMS7003;18573;47.890;35.066;2022-12-20T05:48:30;57.75;47.25;25.75
32066;PMS7003;18573;47.890;35.066;2022-12-20T05:50:59;54.75;45.00;26.25
32066;PMS7003;18573;47.890;35.066;2022-12-20T05:53:29;57.25;47.00;24.50
32066;PMS7003;18573;47.890;35.066;2022-12-20T05:55:58;54.75;46.50;27.75
32066;PMS7003;18573;47.890;35.066;2022-12-20T05:58:28;41.25;35.25;22.75
32066;PMS7003;18573;47.890;35.066;2022-12-20T06:00:59;47.75;42.25;23.50
32066;PMS7003;18573;47.890;35.066;2022-12-20T06:03:28;47.25;38.00;21.75
32066;PMS7003;18573;47.890;35.066;2022-12-20T06:05:58;50.75;41.50;23.25
32066;PMS7003;18573;47.890;35.066;2022-12-20T06:08:27;59.00;45.25;26.00
32066;PMS7003;18573;47.890;35.066;2022-12-20T06:10:56;47.25;41.50;23.75
32066;PMS7003;18573;47.890;35.066;2022-12-20T06:13:25;49.50;38.00;20.00
32066;PMS7003;18573;47.890;35.066;2022-12-20T06:15:54;44.75;38.25;22.75
32066;PMS7003;18573;47.890;35.066;2022-12-20T06:18:23;39.25;36.25;21.75
32066;PMS7003;18573;47.890;35.066;2022-12-20T06:20:52;42.25;35.75;21.50
32066;PMS7003;18573;47.890;35.066;2022-12-20T06:23:21;39.50;35.50;23.00
32066;PMS7003;18573;47.890;35.066;2022-12-20T06:25:51;53.00;43.00;24.00
32066;PMS7003;18573;47.890;35.066;2022-12-20T06:28:21;44.00;36.25;22.25
32066;PMS7003;18573;47.890;35.066;2022-12-20T06:30:51;45.25;38.25;22.50
32066;PMS7003;18573;47.890;35.066;2022-12-20T06:33:21;46.00;38.50;21.25
32066;PMS7003;18573;47.890;35.066;2022-12-20T06:35:51;52.00;42.00;24.25
32066;PMS7003;18573;47.890;35.066;2022-12-20T06:38:20;52.00;44.75;26.50
32066;PMS7003;18573;47.890;35.066;2022-12-20T06:40:49;47.25;40.00;21.75
32066;PMS7003;18573;47.890;35.066;2022-12-20T06:43:18;52.25;42.75;22.75
32066;PMS7003;18573;47.890;35.066;2022-12-20T06:45:47;56.25;47.75;31.25
32066;PMS7003;18573;47.890;35.066;2022-12-20T06:48:17;68.50;55.00;33.00
32066;PMS7003;18573;47.890;35.066;2022-12-20T06:50:47;60.50;43.25;28.00
32066;PMS7003;18573;47.890;35.066;2022-12-20T06:53:18;45.25;39.25;21.00
32066;PMS7003;18573;47.890;35.066;2022-12-20T06:55:47;52.50;45.25;27.50
32066;PMS7003;18573;47.890;35.066;2022-12-20T06:58:17;53.00;44.25;28.75
32066;PMS7003;18573;47.890;35.066;2022-12-20T07:00:47;51.25;40.50;25.50
32066;PMS7003;18573;47.890;35.066;2022-12-20T07:03:16;50.50;43.00;23.00
32066;PMS7003;18573;47.890;35.066;2022-12-20T07:05:56;46.25;43.25;25.00
32066;PMS7003;18573;47.890;35.066;2022-12-20T07:08:20;52.25;46.00;28.50
32066;PMS7003;18573;47.890;35.066;2022-12-20T07:10:50;49.25;43.00;24.75
32066;PMS7003;18573;47.890;35.066;2022-12-20T07:13:20;62.75;49.50;29.25
32066;PMS7003;18573;47.890;35.066;2022-12-20T07:15:56;62.00;51.25;28.50
32066;PMS7003;18573;47.890;35.066;2022-12-20T07:18:26;64.00;49.25;30.25
32066;PMS7003;18573;47.890;35.066;2022-12-20T07:21:05;57.75;50.00;30.50
32066;PMS7003;18573;47.890;35.066;2022-12-20T07:23:29;66.75;49.25;31.25
32066;PMS7003;18573;47.890;35.066;2022-12-20T07:26:00;60.50;52.00;31.25
32066;PMS7003;18573;47.890;35.066;2022-12-20T07:28:30;66.00;51.75;31.00
32066;PMS7003;18573;47.890;35.066;2022-12-20T07:31:01;60.50;49.75;33.25
32066;PMS7003;18573;47.890;35.066;2022-12-20T07:33:31;68.00;54.25;33.00
32066;PMS7003;18573;47.890;35.066;2022-12-20T07:36:04;65.00;52.25;29.50
32066;PMS7003;18573;47.890;35.066;2022-12-20T07:38:35;57.75;47.25;27.75
32066;PMS7003;18573;47.890;35.066;2022-12-20T07:41:11;64.00;52.50;32.50
32066;PMS7003;18573;47.890;35.066;2022-12-20T07:43:41;66.50;54.25;30.75
32066;PMS7003;18573;47.890;35.066;2022-12-20T07:46:17;64.00;50.50;30.50
32066;PMS7003;18573;47.890;35.066;2022-12-20T07:48:42;91.25;72.50;44.00
32066;PMS7003;18573;47.890;35.066;2022-12-20T07:51:20;89.50;72.25;43.25
32066;PMS7003;18573;47.890;35.066;2022-12-20T07:53:55;89.00;71.75;39.50
32066;PMS7003;18573;47.890;35.066;2022-12-20T07:56:27;88.75;83.00;41.00
32066;PMS7003;18573;47.890;35.066;2022-12-20T07:59:00;87.00;70.75;47.25
32066;PMS7003;18573;47.890;35.066;2022-12-20T08:01:31;98.50;84.25;46.75
32066;PMS7003;18573;47.890;35.066;2022-12-20T08:04:05;99.75;82.50;50.00
32066;PMS7003;18573;47.890;35.066;2022-12-20T08:06:35;94.50;79.75;44.25
32066;PMS7003;18573;47.890;35.066;2022-12-20T08:09:06;95.00;77.00;46.00
32066;PMS7003;18573;47.890;35.066;2022-12-20T08:11:42;101.75;83.75;48.75
32066;PMS7003;18573;47.890;35.066;2022-12-20T08:14:13;90.00;82.00;40.75
32066;PMS7003;18573;47.890;35.066;2022-12-20T08:16:42;96.75;76.00;44.50
32066;PMS7003;18573;47.890;35.066;2022-12-20T08:19:12;87.25;68.50;38.75
32066;PMS7003;18573;47.890;35.066;2022-12-20T08:21:41;78.00;63.50;33.50
32066;PMS7003;18573;47.890;35.066;2022-12-20T08:24:10;81.75;65.50;41.75
32066;PMS7003;18573;47.890;35.066;2022-12-20T08:26:40;79.50;61.75;33.50
32066;PMS7003;18573;47.890;35.066;2022-12-20T08:29:09;81.50;68.50;34.50
32066;PMS7003;18573;47.890;35.066;2022-12-20T08:31:38;79.50;67.00;40.25
32066;PMS7003;18573;47.890;35.066;2022-12-20T08:34:10;78.00;60.50;34.00
32066;PMS7003;18573;47.890;35.066;2022-12-20T08:36:40;85.25;68.00;40.75
32066;PMS7003;18573;47.890;35.066;2022-12-20T08:39:09;76.25;66.50;35.75
32066;PMS7003;18573;47.890;35.066;2022-12-20T08:41:38;72.00;57.25;32.75
32066;PMS7003;18573;47.890;35.066;2022-12-20T08:44:07;76.00;61.50;34.25
32066;PMS7003;18573;47.890;35.066;2022-12-20T08:46:37;79.50;63.25;35.50
32066;PMS7003;18573;47.890;35.066;2022-12-20T08:49:06;75.75;61.50;35.00
32066;PMS7003;18573;47.890;35.066;2022-12-20T08:51:35;73.00;58.25;33.50
32066;PMS7003;18573;47.890;35.066;2022-12-20T08:54:04;68.25;53.75;32.25
32066;PMS7003;18573;47.890;35.066;2022-12-20T08:56:34;70.25;55.50;32.75
32066;PMS7003;18573;47.890;35.066;2022-12-20T08:59:04;67.25;53.00;29.50
32066;PMS7003;18573;47.890;35.066;2022-12-20T09:01:33;74.25;60.75;36.00
32066;PMS7003;18573;47.890;35.066;2022-12-20T09:04:02;73.00;57.00;35.00
32066;PMS7003;18573;47.890;35.066;2022-12-20T09:06:33;66.00;51.75;28.50
32066;PMS7003;18573;47.890;35.066;2022-12-20T09:09:03;66.75;52.75;29.25
32066;PMS7003;18573;47.890;35.066;2022-12-20T09:11:35;61.25;49.50;29.00
32066;PMS7003;18573;47.890;35.066;2022-12-20T09:14:04;72.75;57.50;36.25
32066;PMS7003;18573;47.890;35.066;2022-12-20T09:16:34;65.00;48.50;29.00
32066;PMS7003;18573;47.890;35.066;2022-12-20T09:19:03;69.75;56.00;31.75
32066;PMS7003;18573;47.890;35.066;2022-12-20T09:21:33;69.25;53.75;31.50
32066;PMS7003;18573;47.890;35.066;2022-12-20T09:24:02;73.25;55.75;32.75
32066;PMS7003;18573;47.890;35.066;2022-12-20T09:26:32;66.75;54.50;31.75
32066;PMS7003;18573;47.890;35.066;2022-12-20T09:29:04;60.00;47.75;29.50
32066;PMS7003;18573;47.890;35.066;2022-12-20T09:31:33;68.25;54.00;30.50
32066;PMS7003;18573;47.890;35.066;2022-12-20T09:34:03;56.00;46.50;23.00
32066;PMS7003;18573;47.890;35.066;2022-12-20T09:36:32;66.75;51.75;27.75
32066;PMS7003;18573;47.890;35.066;2022-12-20T09:39:02;63.00;51.50;26.75
32066;PMS7003;18573;47.890;35.066;2022-12-20T09:41:32;65.75;51.00;28.00
32066;PMS7003;18573;47.890;35.066;2022-12-20T09:44:26;56.50;45.75;20.50
32066;PMS7003;18573;47.890;35.066;2022-12-20T09:47:03;61.00;48.25;23.50
32066;PMS7003;18573;47.890;35.066;2022-12-20T09:49:38;55.50;49.00;26.75
32066;PMS7003;18573;47.890;35.066;2022-12-20T09:58:16;58.50;46.75;25.50
32066;PMS7003;18573;47.890;35.066;2022-12-20T10:00:46;68.50;57.00;31.50
32066;PMS7003;18573;47.890;35.066;2022-12-20T10:03:20;73.50;56.50;29.75
32066;PMS7003;18573;47.890;35.066;2022-12-20T10:09:13;79.00;60.75;31.75
32066;PMS7003;18573;47.890;35.066;2022-12-20T10:17:32;94.00;73.75;43.00
32066;PMS7003;18573;47.890;35.066;2022-12-20T10:20:11;95.25;75.00;42.25
32066;PMS7003;18573;47.890;35.066;2022-12-20T10:25:32;103.75;77.25;42.75
32066;PMS7003;18573;47.890;35.066;2022-12-20T10:28:03;105.00;78.50;43.50
32066;PMS7003;18573;47.890;35.066;2022-12-20T10:30:33;109.25;82.25;46.00
32066;PMS7003;18573;47.890;35.066;2022-12-20T10:33:02;110.00;85.00;45.00
32066;PMS7003;18573;47.890;35.066;2022-12-20T10:35:38;110.25;86.25;45.75
32066;PMS7003;18573;47.890;35.066;2022-12-20T10:38:10;108.00;83.50;45.25
32066;PMS7003;18573;47.890;35.066;2022-12-20T10:43:21;111.75;86.75;47.75
32066;PMS7003;18573;47.890;35.066;2022-12-20T10:48:33;119.50;95.75;48.75
32066;PMS7003;18573;47.890;35.066;2022-12-20T10:51:01;133.75;106.00;51.25
32066;PMS7003;18573;47.890;35.066;2022-12-20T10:56:33;115.00;91.50;51.00
32066;PMS7003;18573;47.890;35.066;2022-12-20T10:59:22;117.75;98.00;52.00
32066;PMS7003;18573;47.890;35.066;2022-12-20T11:01:44;116.50;87.50;48.00
32066;PMS7003;18573;47.890;35.066;2022-12-20T11:04:26;101.75;77.00;42.75
32066;PMS7003;18573;47.890;35.066;2022-12-20T11:07:03;101.25;78.75;44.00
32066;PMS7003;18573;47.890;35.066;2022-12-20T11:09:34;108.00;76.50;42.75
32066;PMS7003;18573;47.890;35.066;2022-12-20T11:12:14;91.75;72.25;40.00
32066;PMS7003;18573;47.890;35.066;2022-12-20T11:14:45;90.00;70.00;36.75
32066;PMS7003;18573;47.890;35.066;2022-12-20T11:20:02;82.25;68.00;39.75
32066;PMS7003;18573;47.890;35.066;2022-12-20T11:22:49;83.75;64.50;33.00
32066;PMS7003;18573;47.890;35.066;2022-12-20T11:25:38;78.50;60.75;31.00
32066;PMS7003;18573;47.890;35.066;2022-12-20T11:28:40;74.25;54.50;21.50
32066;PMS7003;18573;47.890;35.066;2022-12-20T11:34:01;77.00;58.25;31.75
32066;PMS7003;18573;47.890;35.066;2022-12-20T11:39:26;76.00;56.50;29.00
32066;PMS7003;18573;47.890;35.066;2022-12-20T11:42:05;76.50;60.00;32.00
32066;PMS7003;18573;47.890;35.066;2022-12-20T11:45:11;71.25;57.00;30.50
32066;PMS7003;18573;47.890;35.066;2022-12-20T11:52:57;72.25;54.50;27.50
32066;PMS7003;18573;47.890;35.066;2022-12-20T11:55:36;73.50;56.50;30.25
32066;PMS7003;18573;47.890;35.066;2022-12-20T12:01:03;75.00;58.00;33.50
32066;PMS7003;18573;47.890;35.066;2022-12-20T12:03:40;81.50;59.00;34.00
32066;PMS7003;18573;47.890;35.066;2022-12-20T12:06:19;88.50;66.00;36.50
32066;PMS7003;18573;47.890;35.066;2022-12-20T12:11:48;84.00;68.50;34.25
32066;PMS7003;18573;47.890;35.066;2022-12-20T12:14:27;88.00;66.75;38.50
32066;PMS7003;18573;47.890;35.066;2022-12-20T12:17:08;85.50;64.50;31.00
32066;PMS7003;18573;47.890;35.066;2022-12-20T12:19:39;75.00;60.00;34.00
32066;PMS7003;18573;47.890;35.066;2022-12-20T12:22:12;67.00;52.00;31.00
32066;PMS7003;18573;47.890;35.066;2022-12-20T12:24:44;76.75;62.00;34.00
32066;PMS7003;18573;47.890;35.066;2022-12-20T12:27:25;79.00;59.00;33.25
32066;PMS7003;18573;47.890;35.066;2022-12-20T12:29:49;81.75;64.50;34.25
32066;PMS7003;18573;47.890;35.066;2022-12-20T12:32:37;87.25;65.50;36.25
32066;PMS7003;18573;47.890;35.066;2022-12-20T12:43:54;71.50;58.00;33.00
32066;PMS7003;18573;47.890;35.066;2022-12-20T12:46:25;83.50;63.50;33.75
32066;PMS7003;18573;47.890;35.066;2022-12-20T12:49:03;80.00;60.75;33.00
32066;PMS7003;18573;47.890;35.066;2022-12-20T12:51:41;77.00;59.75;30.25
32066;PMS7003;18573;47.890;35.066;2022-12-20T12:54:13;75.25;60.00;34.00
32066;PMS7003;18573;47.890;35.066;2022-12-20T12:56:43;78.00;59.50;34.00
32066;PMS7003;18573;47.890;35.066;2022-12-20T13:17:56;53.25;40.75;10.00
32066;PMS7003;18573;47.890;35.066;2022-12-20T13:20:36;67.00;53.00;29.75
32066;PMS7003;18573;47.890;35.066;2022-12-20T13:25:46;72.75;56.00;28.25
32066;PMS7003;18573;47.890;35.066;2022-12-20T13:41:24;65.50;51.75;30.25
32066;PMS7003;18573;47.890;35.066;2022-12-20T13:44:49;70.25;53.25;30.00
32066;PMS7003;18573;47.890;35.066;2022-12-20T13:49:37;63.00;49.75;27.25
32066;PMS7003;18573;47.890;35.066;2022-12-20T13:54:46;65.75;51.25;30.25
32066;PMS7003;18573;47.890;35.066;2022-12-20T13:57:21;63.00;50.00;28.75
32066;PMS7003;18573;47.890;35.066;2022-12-20T13:59:56;58.50;48.25;27.25
32066;PMS7003;18573;47.890;35.066;2022-12-20T14:02:32;3.50;3.50;3.50
32066;PMS7003;18573;47.890;35.066;2022-12-20T14:05:04;57.25;45.25;26.75
32066;PMS7003;18573;47.890;35.066;2022-12-20T14:07:36;60.75;51.25;30.00
32066;PMS7003;18573;47.890;35.066;2022-12-20T14:10:16;62.00;48.75;28.00
32066;PMS7003;18573;47.890;35.066;2022-12-20T14:12:49;60.75;49.00;29.00
32066;PMS7003;18573;47.890;35.066;2022-12-20T14:15:30;66.25;53.50;32.00
32066;PMS7003;18573;47.890;35.066;2022-12-20T14:18:04;67.00;54.00;29.25
32066;PMS7003;18573;47.890;35.066;2022-12-20T14:20:35;73.00;58.00;33.75
32066;PMS7003;18573;47.890;35.066;2022-12-20T14:23:15;74.50;57.50;32.00
32066;PMS7003;18573;47.890;35.066;2022-12-20T14:25:50;73.75;57.75;32.50
32066;PMS7003;18573;47.890;35.066;2022-12-20T14:28:30;69.25;55.50;32.25
32066;PMS7003;18573;47.890;35.066;2022-12-20T14:31:01;77.00;60.50;34.25
32066;PMS7003;18573;47.890;35.066;2022-12-20T14:36:28;85.50;67.00;39.00
32066;PMS7003;18573;47.890;35.066;2022-12-20T14:38:46;81.00;65.75;40.50
32066;PMS7003;18573;47.890;35.066;2022-12-20T14:41:34;70.75;54.00;32.50
32066;PMS7003;18573;47.890;35.066;2022-12-20T14:46:49;72.00;57.00;34.25
32066;PMS7003;18573;47.890;35.066;2022-12-20T14:49:29;71.50;56.75;33.25
32066;PMS7003;18573;47.890;35.066;2022-12-20T14:57:31;75.75;59.75;34.00
32066;PMS7003;18573;47.890;35.066;2022-12-20T15:11:01;71.50;56.75;34.25
32066;PMS7003;18573;47.890;35.066;2022-12-20T15:13:38;74.75;59.50;34.00
32066;PMS7003;18573;47.890;35.066;2022-12-20T15:16:05;83.50;66.25;40.50
32066;PMS7003;18573;47.890;35.066;2022-12-20T15:18:42;79.50;67.00;33.75
32066;PMS7003;18573;47.890;35.066;2022-12-20T15:21:14;82.25;65.50;40.75
32066;PMS7003;18573;47.890;35.066;2022-12-20T15:23:59;79.50;64.25;34.75
32066;PMS7003;18573;47.890;35.066;2022-12-20T15:26:31;77.00;58.75;30.25
32066;PMS7003;18573;47.890;35.066;2022-12-20T15:29:01;87.00;72.50;42.75
32066;PMS7003;18573;47.890;35.066;2022-12-20T15:31:36;80.50;66.50;35.25
32066;PMS7003;18573;47.890;35.066;2022-12-20T15:34:03;75.75;62.00;34.00
32066;PMS7003;18573;47.890;35.066;2022-12-20T15:36:44;77.00;58.50;34.50
32066;PMS7003;18573;47.890;35.066;2022-12-20T15:39:13;70.00;56.50;34.00
32066;PMS7003;18573;47.890;35.066;2022-12-20T15:41:43;82.75;65.50;41.00
32066;PMS7003;18573;47.890;35.066;2022-12-20T15:44:15;79.00;64.00;34.25
32066;PMS7003;18573;47.890;35.066;2022-12-20T15:46:46;72.75;58.50;33.25
32066;PMS7003;18573;47.890;35.066;2022-12-20T15:49:22;86.50;67.75;40.00
32066;PMS7003;18573;47.890;35.066;2022-12-20T15:51:48;72.25;58.00;33.25
32066;PMS7003;18573;47.890;35.066;2022-12-20T15:54:25;72.50;57.75;34.00
32066;PMS7003;18573;47.890;35.066;2022-12-20T15:57:04;73.25;58.75;33.00
32066;PMS7003;18573;47.890;35.066;2022-12-20T15:59:30;73.75;57.00;33.75
32066;PMS7003;18573;47.890;35.066;2022-12-20T16:02:00;68.75;57.00;39.25
32066;PMS7003;18573;47.890;35.066;2022-12-20T16:04:30;74.75;56.75;33.25
32066;PMS7003;18573;47.890;35.066;2022-12-20T16:06:59;71.75;57.00;33.75
32066;PMS7003;18573;47.890;35.066;2022-12-20T16:09:30;78.00;59.50;32.25
32066;PMS7003;18573;47.890;35.066;2022-12-20T16:11:59;73.00;60.25;33.00